Belmont, North Carolina
Current Conditions -  °F | °C
As of 2:52 PM on Wednesday 28 Jan 2015 (Local Time) from KCLT Reporting Station
Clear Clear  
Wind Chill:   Ceiling: Unl
Heat Index:   Visibility: 10mi
Dew Point: -9°   Wind: 5mph
Humidity: 27%   Direction: 340°NNW
Pressure: 30.23"   Gusts: NA
Location:  35.24°N, 81.04°W
Report Text: KCLT 281952Z 34004KT 10SM CLR 09/M09 A3023 RMK AO2 SLP239 T00891094
Loading
Personal Weather Stations






























Interactive Weather Map New forecast layout! Learn more

10-Day Weather Forecast

Advertisements
Track Severe Weather on mobile